sensor_id;sensor_type;location;lat;lon;timestamp;P1;durP1;ratioP1;P2;durP2;ratioP2
25567;SDS011;13455;51.480;7.594;2022-11-15T00:01:32;11.40;;;7.88;;
25567;SDS011;13455;51.480;7.594;2022-11-15T00:03:58;13.38;;;8.00;;
25567;SDS011;13455;51.480;7.594;2022-11-15T00:06:24;12.45;;;7.78;;
25567;SDS011;13455;51.480;7.594;2022-11-15T00:08:50;11.55;;;7.95;;
25567;SDS011;13455;51.480;7.594;2022-11-15T00:11:16;12.70;;;7.78;;
25567;SDS011;13455;51.480;7.594;2022-11-15T00:13:42;12.55;;;8.20;;
25567;SDS011;13455;51.480;7.594;2022-11-15T00:16:08;13.27;;;7.78;;
25567;SDS011;13455;51.480;7.594;2022-11-15T00:18:35;11.55;;;7.82;;
25567;SDS011;13455;51.480;7.594;2022-11-15T00:21:05;12.83;;;7.90;;
25567;SDS011;13455;51.480;7.594;2022-11-15T00:23:32;14.13;;;8.23;;
25567;SDS011;13455;51.480;7.594;2022-11-15T00:25:59;13.30;;;7.85;;
25567;SDS011;13455;51.480;7.594;2022-11-15T00:28:25;14.25;;;7.88;;
25567;SDS011;13455;51.480;7.594;2022-11-15T00:30:51;13.27;;;7.97;;
25567;SDS011;13455;51.480;7.594;2022-11-15T00:33:17;14.63;;;8.10;;
25567;SDS011;13455;51.480;7.594;2022-11-15T00:35:43;14.00;;;8.07;;
25567;SDS011;13455;51.480;7.594;2022-11-15T00:38:09;12.98;;;7.53;;
25567;SDS011;13455;51.480;7.594;2022-11-15T00:40:35;13.55;;;7.68;;
25567;SDS011;13455;51.480;7.594;2022-11-15T00:43:01;11.82;;;7.10;;
25567;SDS011;13455;51.480;7.594;2022-11-15T00:45:27;11.80;;;7.60;;
25567;SDS011;13455;51.480;7.594;2022-11-15T00:47:53;14.10;;;7.75;;
25567;SDS011;13455;51.480;7.594;2022-11-15T00:50:19;13.20;;;7.47;;
25567;SDS011;13455;51.480;7.594;2022-11-15T00:52:47;14.18;;;7.78;;
25567;SDS011;13455;51.480;7.594;2022-11-15T00:55:13;12.75;;;7.65;;
25567;SDS011;13455;51.480;7.594;2022-11-15T00:57:39;13.23;;;7.60;;
25567;SDS011;13455;51.480;7.594;2022-11-15T01:00:06;12.23;;;7.60;;
25567;SDS011;13455;51.480;7.594;2022-11-15T01:02:32;10.93;;;7.18;;
25567;SDS011;13455;51.480;7.594;2022-11-15T01:04:58;13.65;;;7.70;;
25567;SDS011;13455;51.480;7.594;2022-11-15T01:07:24;11.70;;;7.20;;
25567;SDS011;13455;51.480;7.594;2022-11-15T01:09:50;13.10;;;6.88;;
25567;SDS011;13455;51.480;7.594;2022-11-15T01:12:16;10.82;;;7.10;;
25567;SDS011;13455;51.480;7.594;2022-11-15T01:14:42;12.25;;;7.55;;
25567;SDS011;13455;51.480;7.594;2022-11-15T01:17:08;12.85;;;7.40;;
25567;SDS011;13455;51.480;7.594;2022-11-15T01:19:34;11.30;;;7.43;;
25567;SDS011;13455;51.480;7.594;2022-11-15T01:22:00;12.40;;;7.35;;
25567;SDS011;13455;51.480;7.594;2022-11-15T01:24:26;12.48;;;7.10;;
25567;SDS011;13455;51.480;7.594;2022-11-15T01:26:52;12.35;;;7.28;;
25567;SDS011;13455;51.480;7.594;2022-11-15T01:29:18;10.55;;;7.35;;
25567;SDS011;13455;51.480;7.594;2022-11-15T01:31:44;11.93;;;7.40;;
25567;SDS011;13455;51.480;7.594;2022-11-15T01:34:10;10.38;;;7.43;;
25567;SDS011;13455;51.480;7.594;2022-11-15T01:36:36;12.00;;;7.45;;
25567;SDS011;13455;51.480;7.594;2022-11-15T01:39:02;12.17;;;7.50;;
25567;SDS011;13455;51.480;7.594;2022-11-15T01:41:29;12.35;;;7.45;;
25567;SDS011;13455;51.480;7.594;2022-11-15T01:43:56;12.20;;;7.82;;
25567;SDS011;13455;51.480;7.594;2022-11-15T01:48:52;11.93;;;7.70;;
25567;SDS011;13455;51.480;7.594;2022-11-15T01:51:20;12.23;;;7.70;;
25567;SDS011;13455;51.480;7.594;2022-11-15T01:53:47;13.33;;;7.63;;
25567;SDS011;13455;51.480;7.594;2022-11-15T01:56:18;12.07;;;7.53;;
25567;SDS011;13455;51.480;7.594;2022-11-15T01:58:47;12.18;;;7.80;;
25567;SDS011;13455;51.480;7.594;2022-11-15T02:01:14;13.83;;;7.47;;
25567;SDS011;13455;51.480;7.594;2022-11-15T02:03:50;12.33;;;7.70;;
25567;SDS011;13455;51.480;7.594;2022-11-15T02:06:20;12.88;;;7.65;;
25567;SDS011;13455;51.480;7.594;2022-11-15T02:08:47;13.07;;;7.82;;
25567;SDS011;13455;51.480;7.594;2022-11-15T02:11:13;13.13;;;7.88;;
25567;SDS011;13455;51.480;7.594;2022-11-15T02:13:39;12.57;;;7.47;;
25567;SDS011;13455;51.480;7.594;2022-11-15T02:18:46;12.02;;;7.63;;
25567;SDS011;13455;51.480;7.594;2022-11-15T02:24:47;12.57;;;7.63;;
25567;SDS011;13455;51.480;7.594;2022-11-15T02:30:35;13.32;;;7.68;;
25567;SDS011;13455;51.480;7.594;2022-11-15T02:36:13;13.25;;;7.70;;
25567;SDS011;13455;51.480;7.594;2022-11-15T02:38:49;11.90;;;7.60;;
25567;SDS011;13455;51.480;7.594;2022-11-15T02:44:08;10.50;;;7.50;;
25567;SDS011;13455;51.480;7.594;2022-11-15T02:46:44;12.68;;;7.50;;
25567;SDS011;13455;51.480;7.594;2022-11-15T02:49:31;13.07;;;7.57;;
25567;SDS011;13455;51.480;7.594;2022-11-15T02:51:58;12.45;;;7.50;;
25567;SDS011;13455;51.480;7.594;2022-11-15T02:54:25;10.47;;;7.40;;
25567;SDS011;13455;51.480;7.594;2022-11-15T02:56:54;13.15;;;7.70;;
25567;SDS011;13455;51.480;7.594;2022-11-15T03:07:31;12.23;;;7.85;;
25567;SDS011;13455;51.480;7.594;2022-11-15T03:10:12;12.57;;;8.00;;
25567;SDS011;13455;51.480;7.594;2022-11-15T03:12:54;13.50;;;8.00;;
25567;SDS011;13455;51.480;7.594;2022-11-15T03:15:44;16.92;;;7.95;;
25567;SDS011;13455;51.480;7.594;2022-11-15T03:18:38;12.80;;;7.70;;
25567;SDS011;13455;51.480;7.594;2022-11-15T03:21:08;12.70;;;7.77;;
25567;SDS011;13455;51.480;7.594;2022-11-15T03:23:39;11.87;;;7.60;;
25567;SDS011;13455;51.480;7.594;2022-11-15T03:26:06;12.60;;;7.67;;
25567;SDS011;13455;51.480;7.594;2022-11-15T03:28:41;12.55;;;7.70;;
25567;SDS011;13455;51.480;7.594;2022-11-15T03:31:13;9.77;;;6.83;;
25567;SDS011;13455;51.480;7.594;2022-11-15T03:33:58;11.52;;;7.00;;
25567;SDS011;13455;51.480;7.594;2022-11-15T03:36:27;10.55;;;6.78;;
25567;SDS011;13455;51.480;7.594;2022-11-15T03:38:55;12.60;;;6.75;;
25567;SDS011;13455;51.480;7.594;2022-11-15T03:41:27;10.30;;;6.30;;
25567;SDS011;13455;51.480;7.594;2022-11-15T03:44:13;11.23;;;6.30;;
25567;SDS011;13455;51.480;7.594;2022-11-15T03:46:52;9.40;;;6.40;;
25567;SDS011;13455;51.480;7.594;2022-11-15T03:49:32;9.30;;;6.25;;
25567;SDS011;13455;51.480;7.594;2022-11-15T03:52:00;9.65;;;6.07;;
25567;SDS011;13455;51.480;7.594;2022-11-15T03:54:27;10.40;;;6.30;;
25567;SDS011;13455;51.480;7.594;2022-11-15T03:56:53;9.25;;;6.20;;
25567;SDS011;13455;51.480;7.594;2022-11-15T03:59:19;9.45;;;5.72;;
25567;SDS011;13455;51.480;7.594;2022-11-15T04:01:44;11.52;;;6.35;;
25567;SDS011;13455;51.480;7.594;2022-11-15T04:04:10;10.03;;;6.37;;
25567;SDS011;13455;51.480;7.594;2022-11-15T04:06:36;9.57;;;5.87;;
25567;SDS011;13455;51.480;7.594;2022-11-15T04:09:02;9.53;;;5.90;;
25567;SDS011;13455;51.480;7.594;2022-11-15T04:11:27;8.95;;;5.85;;
25567;SDS011;13455;51.480;7.594;2022-11-15T04:13:53;9.20;;;5.80;;
25567;SDS011;13455;51.480;7.594;2022-11-15T04:16:19;9.73;;;5.90;;
25567;SDS011;13455;51.480;7.594;2022-11-15T04:18:44;10.27;;;6.10;;
25567;SDS011;13455;51.480;7.594;2022-11-15T04:21:30;8.15;;;5.68;;
25567;SDS011;13455;51.480;7.594;2022-11-15T04:24:14;9.02;;;5.85;;
25567;SDS011;13455;51.480;7.594;2022-11-15T04:26:40;8.05;;;5.40;;
25567;SDS011;13455;51.480;7.594;2022-11-15T04:29:06;9.55;;;5.80;;
25567;SDS011;13455;51.480;7.594;2022-11-15T04:31:50;9.45;;;6.03;;
25567;SDS011;13455;51.480;7.594;2022-11-15T04:34:16;9.90;;;6.00;;
25567;SDS011;13455;51.480;7.594;2022-11-15T04:36:41;9.43;;;5.90;;
25567;SDS011;13455;51.480;7.594;2022-11-15T04:39:25;9.25;;;6.30;;
25567;SDS011;13455;51.480;7.594;2022-11-15T04:41:51;8.85;;;6.00;;
25567;SDS011;13455;51.480;7.594;2022-11-15T04:44:17;8.93;;;6.20;;
25567;SDS011;13455;51.480;7.594;2022-11-15T04:46:42;7.77;;;6.00;;
25567;SDS011;13455;51.480;7.594;2022-11-15T04:49:08;8.50;;;6.33;;
25567;SDS011;13455;51.480;7.594;2022-11-15T04:51:33;8.43;;;6.18;;
25567;SDS011;13455;51.480;7.594;2022-11-15T04:53:59;9.40;;;6.07;;
25567;SDS011;13455;51.480;7.594;2022-11-15T04:56:24;9.15;;;6.53;;
25567;SDS011;13455;51.480;7.594;2022-11-15T04:58:50;9.70;;;6.60;;
25567;SDS011;13455;51.480;7.594;2022-11-15T05:01:16;9.23;;;6.10;;
25567;SDS011;13455;51.480;7.594;2022-11-15T05:03:42;9.23;;;6.30;;
25567;SDS011;13455;51.480;7.594;2022-11-15T05:06:27;7.47;;;5.97;;
25567;SDS011;13455;51.480;7.594;2022-11-15T05:08:53;8.98;;;6.18;;
25567;SDS011;13455;51.480;7.594;2022-11-15T05:11:19;9.13;;;6.20;;
25567;SDS011;13455;51.480;7.594;2022-11-15T05:13:45;7.97;;;5.90;;
25567;SDS011;13455;51.480;7.594;2022-11-15T05:16:11;8.05;;;5.88;;
25567;SDS011;13455;51.480;7.594;2022-11-15T05:18:36;8.20;;;5.72;;
25567;SDS011;13455;51.480;7.594;2022-11-15T05:21:06;6.97;;;5.63;;
25567;SDS011;13455;51.480;7.594;2022-11-15T05:23:33;9.50;;;5.70;;
25567;SDS011;13455;51.480;7.594;2022-11-15T05:25:59;6.80;;;5.63;;
25567;SDS011;13455;51.480;7.594;2022-11-15T05:28:26;8.60;;;5.63;;
25567;SDS011;13455;51.480;7.594;2022-11-15T05:30:51;8.33;;;5.83;;
25567;SDS011;13455;51.480;7.594;2022-11-15T05:33:17;7.80;;;5.73;;
25567;SDS011;13455;51.480;7.594;2022-11-15T05:35:45;8.07;;;5.47;;
25567;SDS011;13455;51.480;7.594;2022-11-15T05:38:15;8.52;;;6.13;;
25567;SDS011;13455;51.480;7.594;2022-11-15T05:40:41;7.05;;;5.25;;
25567;SDS011;13455;51.480;7.594;2022-11-15T05:43:07;8.30;;;5.60;;
25567;SDS011;13455;51.480;7.594;2022-11-15T05:45:34;7.65;;;5.35;;
25567;SDS011;13455;51.480;7.594;2022-11-15T05:48:01;7.97;;;5.47;;
25567;SDS011;13455;51.480;7.594;2022-11-15T05:50:33;6.63;;;5.07;;
25567;SDS011;13455;51.480;7.594;2022-11-15T05:52:59;7.10;;;4.90;;
25567;SDS011;13455;51.480;7.594;2022-11-15T05:55:26;6.60;;;5.00;;
25567;SDS011;13455;51.480;7.594;2022-11-15T05:57:52;6.63;;;4.72;;
25567;SDS011;13455;51.480;7.594;2022-11-15T06:00:17;6.97;;;4.70;;
25567;SDS011;13455;51.480;7.594;2022-11-15T06:02:43;6.75;;;4.45;;
25567;SDS011;13455;51.480;7.594;2022-11-15T06:05:09;5.87;;;4.30;;
25567;SDS011;13455;51.480;7.594;2022-11-15T06:07:34;7.13;;;4.50;;
25567;SDS011;13455;51.480;7.594;2022-11-15T06:10:00;6.37;;;4.40;;
25567;SDS011;13455;51.480;7.594;2022-11-15T06:12:26;8.60;;;4.87;;
25567;SDS011;13455;51.480;7.594;2022-11-15T06:14:51;6.23;;;4.80;;
25567;SDS011;13455;51.480;7.594;2022-11-15T06:17:17;7.63;;;4.70;;
25567;SDS011;13455;51.480;7.594;2022-11-15T06:19:42;6.60;;;4.70;;
25567;SDS011;13455;51.480;7.594;2022-11-15T06:22:08;7.53;;;4.82;;
25567;SDS011;13455;51.480;7.594;2022-11-15T06:24:34;7.30;;;4.40;;
25567;SDS011;13455;51.480;7.594;2022-11-15T06:27:00;7.03;;;4.32;;
25567;SDS011;13455;51.480;7.594;2022-11-15T06:29:25;6.05;;;3.80;;
25567;SDS011;13455;51.480;7.594;2022-11-15T06:31:51;5.25;;;3.50;;
25567;SDS011;13455;51.480;7.594;2022-11-15T06:34:17;5.15;;;3.95;;
25567;SDS011;13455;51.480;7.594;2022-11-15T06:36:43;5.80;;;3.80;;
25567;SDS011;13455;51.480;7.594;2022-11-15T06:39:09;5.67;;;3.73;;
25567;SDS011;13455;51.480;7.594;2022-11-15T06:41:34;6.30;;;3.53;;
25567;SDS011;13455;51.480;7.594;2022-11-15T06:44:00;5.90;;;3.13;;
25567;SDS011;13455;51.480;7.594;2022-11-15T06:46:27;4.50;;;3.20;;
25567;SDS011;13455;51.480;7.594;2022-11-15T06:48:53;4.90;;;3.23;;
25567;SDS011;13455;51.480;7.594;2022-11-15T06:51:18;4.18;;;2.95;;
25567;SDS011;13455;51.480;7.594;2022-11-15T06:53:44;3.97;;;2.80;;
25567;SDS011;13455;51.480;7.594;2022-11-15T06:56:10;4.25;;;2.88;;
25567;SDS011;13455;51.480;7.594;2022-11-15T06:58:36;6.68;;;3.05;;
25567;SDS011;13455;51.480;7.594;2022-11-15T07:01:05;4.70;;;2.80;;
25567;SDS011;13455;51.480;7.594;2022-11-15T07:03:36;4.93;;;2.70;;
25567;SDS011;13455;51.480;7.594;2022-11-15T07:06:03;4.03;;;2.70;;
25567;SDS011;13455;51.480;7.594;2022-11-15T07:08:29;4.70;;;2.70;;
25567;SDS011;13455;51.480;7.594;2022-11-15T07:10:57;4.47;;;2.38;;
25567;SDS011;13455;51.480;7.594;2022-11-15T07:13:25;3.58;;;2.20;;
25567;SDS011;13455;51.480;7.594;2022-11-15T07:15:51;4.05;;;2.35;;
25567;SDS011;13455;51.480;7.594;2022-11-15T07:18:16;4.37;;;2.17;;
25567;SDS011;13455;51.480;7.594;2022-11-15T07:20:42;4.17;;;1.80;;
25567;SDS011;13455;51.480;7.594;2022-11-15T07:23:08;3.83;;;2.03;;
25567;SDS011;13455;51.480;7.594;2022-11-15T07:25:33;3.47;;;1.90;;
25567;SDS011;13455;51.480;7.594;2022-11-15T07:27:59;2.75;;;1.77;;
25567;SDS011;13455;51.480;7.594;2022-11-15T07:30:26;4.07;;;1.85;;
25567;SDS011;13455;51.480;7.594;2022-11-15T07:32:55;3.57;;;1.93;;
25567;SDS011;13455;51.480;7.594;2022-11-15T07:35:22;3.65;;;2.00;;
25567;SDS011;13455;51.480;7.594;2022-11-15T07:37:55;3.80;;;1.92;;
25567;SDS011;13455;51.480;7.594;2022-11-15T07:40:28;4.22;;;1.85;;
25567;SDS011;13455;51.480;7.594;2022-11-15T07:43:01;3.03;;;1.95;;
25567;SDS011;13455;51.480;7.594;2022-11-15T07:45:32;4.05;;;1.95;;
25567;SDS011;13455;51.480;7.594;2022-11-15T07:47:59;5.45;;;2.10;;
25567;SDS011;13455;51.480;7.594;2022-11-15T07:50:26;4.20;;;1.95;;
25567;SDS011;13455;51.480;7.594;2022-11-15T07:52:58;3.20;;;1.98;;
25567;SDS011;13455;51.480;7.594;2022-11-15T07:55:25;3.83;;;1.90;;
25567;SDS011;13455;51.480;7.594;2022-11-15T07:57:53;3.40;;;1.80;;
25567;SDS011;13455;51.480;7.594;2022-11-15T08:00:24;4.05;;;1.92;;
25567;SDS011;13455;51.480;7.594;2022-11-15T08:02:50;2.70;;;1.80;;
25567;SDS011;13455;51.480;7.594;2022-11-15T08:05:15;3.13;;;1.87;;
25567;SDS011;13455;51.480;7.594;2022-11-15T08:07:41;3.57;;;1.77;;
25567;SDS011;13455;51.480;7.594;2022-11-15T08:10:07;3.63;;;1.63;;
25567;SDS011;13455;51.480;7.594;2022-11-15T08:12:33;4.63;;;1.70;;
25567;SDS011;13455;51.480;7.594;2022-11-15T08:14:59;2.97;;;1.50;;
25567;SDS011;13455;51.480;7.594;2022-11-15T08:17:24;3.55;;;1.70;;
25567;SDS011;13455;51.480;7.594;2022-11-15T08:19:51;2.20;;;1.40;;
25567;SDS011;13455;51.480;7.594;2022-11-15T08:22:16;3.27;;;1.60;;
25567;SDS011;13455;51.480;7.594;2022-11-15T08:24:42;3.03;;;1.48;;
25567;SDS011;13455;51.480;7.594;2022-11-15T08:27:09;2.70;;;1.40;;
25567;SDS011;13455;51.480;7.594;2022-11-15T08:29:40;3.45;;;1.30;;
25567;SDS011;13455;51.480;7.594;2022-11-15T08:32:07;2.55;;;1.50;;
25567;SDS011;13455;51.480;7.594;2022-11-15T08:34:33;3.42;;;1.60;;
25567;SDS011;13455;51.480;7.594;2022-11-15T08:36:58;2.85;;;1.50;;
25567;SDS011;13455;51.480;7.594;2022-11-15T08:39:24;3.03;;;1.40;;
25567;SDS011;13455;51.480;7.594;2022-11-15T08:41:50;4.15;;;1.40;;
25567;SDS011;13455;51.480;7.594;2022-11-15T08:44:16;3.42;;;1.40;;
25567;SDS011;13455;51.480;7.594;2022-11-15T08:46:42;3.20;;;1.50;;
25567;SDS011;13455;51.480;7.594;2022-11-15T08:49:08;2.70;;;1.40;;
25567;SDS011;13455;51.480;7.594;2022-11-15T08:51:34;2.92;;;1.33;;
25567;SDS011;13455;51.480;7.594;2022-11-15T08:54:00;2.90;;;1.45;;
25567;SDS011;13455;51.480;7.594;2022-11-15T08:56:25;2.40;;;1.23;;
25567;SDS011;13455;51.480;7.594;2022-11-15T08:58:51;2.17;;;1.20;;
25567;SDS011;13455;51.480;7.594;2022-11-15T09:01:17;3.60;;;1.20;;
25567;SDS011;13455;51.480;7.594;2022-11-15T09:03:44;3.47;;;1.20;;
25567;SDS011;13455;51.480;7.594;2022-11-15T09:06:09;3.90;;;1.33;;
25567;SDS011;13455;51.480;7.594;2022-11-15T09:08:35;2.30;;;1.30;;
25567;SDS011;13455;51.480;7.594;2022-11-15T09:11:05;2.22;;;1.20;;
25567;SDS011;13455;51.480;7.594;2022-11-15T09:13:32;3.10;;;1.20;;
25567;SDS011;13455;51.480;7.594;2022-11-15T09:15:58;3.30;;;1.15;;
25567;SDS011;13455;51.480;7.594;2022-11-15T09:18:25;3.53;;;1.20;;
25567;SDS011;13455;51.480;7.594;2022-11-15T09:20:54;2.88;;;1.10;;
25567;SDS011;13455;51.480;7.594;2022-11-15T09:23:24;2.92;;;1.17;;
25567;SDS011;13455;51.480;7.594;2022-11-15T09:25:50;2.85;;;1.30;;
25567;SDS011;13455;51.480;7.594;2022-11-15T09:28:17;2.72;;;1.15;;
25567;SDS011;13455;51.480;7.594;2022-11-15T09:30:43;3.30;;;1.23;;
25567;SDS011;13455;51.480;7.594;2022-11-15T09:33:09;4.32;;;1.20;;
25567;SDS011;13455;51.480;7.594;2022-11-15T09:35:37;2.70;;;0.93;;
25567;SDS011;13455;51.480;7.594;2022-11-15T09:38:02;2.33;;;1.20;;
25567;SDS011;13455;51.480;7.594;2022-11-15T09:40:29;2.22;;;1.15;;
25567;SDS011;13455;51.480;7.594;2022-11-15T09:45:51;2.70;;;1.10;;
25567;SDS011;13455;51.480;7.594;2022-11-15T09:51:27;2.97;;;1.15;;
25567;SDS011;13455;51.480;7.594;2022-11-15T09:56:35;3.35;;;1.20;;
25567;SDS011;13455;51.480;7.594;2022-11-15T10:01:59;2.72;;;1.10;;
25567;SDS011;13455;51.480;7.594;2022-11-15T10:04:39;2.42;;;1.00;;
25567;SDS011;13455;51.480;7.594;2022-11-15T10:10:00;2.40;;;1.03;;
25567;SDS011;13455;51.480;7.594;2022-11-15T10:12:40;2.63;;;0.90;;
25567;SDS011;13455;51.480;7.594;2022-11-15T10:15:12;2.97;;;1.02;;
25567;SDS011;13455;51.480;7.594;2022-11-15T10:20:29;3.75;;;0.88;;
25567;SDS011;13455;51.480;7.594;2022-11-15T10:23:01;3.08;;;1.00;;
25567;SDS011;13455;51.480;7.594;2022-11-15T10:25:34;2.33;;;1.00;;
25567;SDS011;13455;51.480;7.594;2022-11-15T10:30:49;2.60;;;1.00;;
25567;SDS011;13455;51.480;7.594;2022-11-15T10:33:26;1.70;;;0.90;;
25567;SDS011;13455;51.480;7.594;2022-11-15T10:38:49;2.80;;;1.00;;
25567;SDS011;13455;51.480;7.594;2022-11-15T10:43:45;3.55;;;0.90;;
25567;SDS011;13455;51.480;7.594;2022-11-15T10:46:26;2.47;;;0.85;;
25567;SDS011;13455;51.480;7.594;2022-11-15T10:48:52;3.03;;;1.00;;
25567;SDS011;13455;51.480;7.594;2022-11-15T10:51:21;3.17;;;1.00;;
25567;SDS011;13455;51.480;7.594;2022-11-15T10:53:53;2.42;;;1.00;;
25567;SDS011;13455;51.480;7.594;2022-11-15T10:56:21;2.03;;;1.00;;
25567;SDS011;13455;51.480;7.594;2022-11-15T10:58:53;3.22;;;1.02;;
25567;SDS011;13455;51.480;7.594;2022-11-15T11:01:24;2.08;;;0.90;;
25567;SDS011;13455;51.480;7.594;2022-11-15T11:04:04;2.33;;;0.90;;
25567;SDS011;13455;51.480;7.594;2022-11-15T11:06:32;2.17;;;1.00;;
25567;SDS011;13455;51.480;7.594;2022-11-15T11:09:19;2.63;;;1.00;;
25567;SDS011;13455;51.480;7.594;2022-11-15T11:11:48;2.42;;;0.90;;
25567;SDS011;13455;51.480;7.594;2022-11-15T11:14:30;2.28;;;1.08;;
25567;SDS011;13455;51.480;7.594;2022-11-15T11:24:44;2.27;;;0.90;;
25567;SDS011;13455;51.480;7.594;2022-11-15T11:42:26;1.88;;;0.70;;
25567;SDS011;13455;51.480;7.594;2022-11-15T11:47:47;3.30;;;0.90;;
25567;SDS011;13455;51.480;7.594;2022-11-15T11:50:19;4.40;;;0.88;;
25567;SDS011;13455;51.480;7.594;2022-11-15T11:55:50;2.80;;;0.80;;
25567;SDS011;13455;51.480;7.594;2022-11-15T11:58:35;3.75;;;0.80;;
25567;SDS011;13455;51.480;7.594;2022-11-15T12:03:59;1.60;;;0.70;;
25567;SDS011;13455;51.480;7.594;2022-11-15T12:09:19;2.47;;;0.73;;
25567;SDS011;13455;51.480;7.594;2022-11-15T12:17:08;2.35;;;0.68;;
25567;SDS011;13455;51.480;7.594;2022-11-15T12:19:35;3.00;;;0.77;;
25567;SDS011;13455;51.480;7.594;2022-11-15T12:22:15;2.27;;;0.63;;
25567;SDS011;13455;51.480;7.594;2022-11-15T12:24:45;1.67;;;0.70;;
25567;SDS011;13455;51.480;7.594;2022-11-15T12:27:19;2.50;;;0.73;;
25567;SDS011;13455;51.480;7.594;2022-11-15T12:29:46;1.92;;;0.60;;
25567;SDS011;13455;51.480;7.594;2022-11-15T12:38:02;2.83;;;0.80;;
25567;SDS011;13455;51.480;7.594;2022-11-15T12:40:29;3.28;;;0.70;;
25567;SDS011;13455;51.480;7.594;2022-11-15T12:42:59;2.03;;;0.60;;
25567;SDS011;13455;51.480;7.594;2022-11-15T12:45:36;2.53;;;0.70;;
25567;SDS011;13455;51.480;7.594;2022-11-15T12:56:09;1.63;;;0.70;;
25567;SDS011;13455;51.480;7.594;2022-11-15T13:06:43;3.78;;;0.88;;
25567;SDS011;13455;51.480;7.594;2022-11-15T13:12:00;3.63;;;0.80;;
25567;SDS011;13455;51.480;7.594;2022-11-15T13:22:39;3.08;;;0.80;;
25567;SDS011;13455;51.480;7.594;2022-11-15T13:28:25;4.97;;;0.80;;
25567;SDS011;13455;51.480;7.594;2022-11-15T13:30:54;4.35;;;0.80;;
25567;SDS011;13455;51.480;7.594;2022-11-15T13:36:00;3.13;;;0.75;;
25567;SDS011;13455;51.480;7.594;2022-11-15T13:40:59;3.72;;;0.90;;
25567;SDS011;13455;51.480;7.594;2022-11-15T13:43:36;2.83;;;0.83;;
25567;SDS011;13455;51.480;7.594;2022-11-15T13:46:21;3.40;;;0.90;;
25567;SDS011;13455;51.480;7.594;2022-11-15T13:48:51;2.53;;;0.70;;
25567;SDS011;13455;51.480;7.594;2022-11-15T13:53:56;2.95;;;0.80;;
25567;SDS011;13455;51.480;7.594;2022-11-15T13:56:24;4.05;;;1.00;;
25567;SDS011;13455;51.480;7.594;2022-11-15T13:58:51;3.35;;;0.80;;
25567;SDS011;13455;51.480;7.594;2022-11-15T14:01:19;4.27;;;1.00;;
25567;SDS011;13455;51.480;7.594;2022-11-15T14:03:58;2.47;;;1.00;;
25567;SDS011;13455;51.480;7.594;2022-11-15T14:06:25;3.83;;;0.90;;
25567;SDS011;13455;51.480;7.594;2022-11-15T14:11:36;4.63;;;1.05;;
25567;SDS011;13455;51.480;7.594;2022-11-15T14:16:35;3.35;;;1.05;;
25567;SDS011;13455;51.480;7.594;2022-11-15T14:19:02;4.50;;;1.30;;
25567;SDS011;13455;51.480;7.594;2022-11-15T14:21:29;2.58;;;1.05;;
25567;SDS011;13455;51.480;7.594;2022-11-15T14:26:40;4.10;;;1.27;;
25567;SDS011;13455;51.480;7.594;2022-11-15T14:31:52;3.30;;;1.23;;
25567;SDS011;13455;51.480;7.594;2022-11-15T14:34:19;4.18;;;1.23;;
25567;SDS011;13455;51.480;7.594;2022-11-15T14:36:47;4.00;;;1.30;;
25567;SDS011;13455;51.480;7.594;2022-11-15T14:39:13;3.08;;;1.15;;
25567;SDS011;13455;51.480;7.594;2022-11-15T14:41:39;4.63;;;1.10;;
25567;SDS011;13455;51.480;7.594;2022-11-15T14:44:05;2.95;;;1.00;;
25567;SDS011;13455;51.480;7.594;2022-11-15T14:46:31;3.63;;;1.00;;
25567;SDS011;13455;51.480;7.594;2022-11-15T14:48:57;2.70;;;1.15;;
25567;SDS011;13455;51.480;7.594;2022-11-15T14:51:24;3.25;;;1.15;;
25567;SDS011;13455;51.480;7.594;2022-11-15T14:53:51;3.92;;;1.13;;
25567;SDS011;13455;51.480;7.594;2022-11-15T14:56:17;5.20;;;1.17;;
25567;SDS011;13455;51.480;7.594;2022-11-15T14:58:43;3.40;;;1.10;;
25567;SDS011;13455;51.480;7.594;2022-11-15T15:01:13;3.60;;;1.20;;
25567;SDS011;13455;51.480;7.594;2022-11-15T15:03:42;4.60;;;1.30;;
25567;SDS011;13455;51.480;7.594;2022-11-15T15:06:09;3.65;;;1.27;;
25567;SDS011;13455;51.480;7.594;2022-11-15T15:08:34;3.30;;;1.20;;
25567;SDS011;13455;51.480;7.594;2022-11-15T15:11:01;3.75;;;1.40;;
25567;SDS011;13455;51.480;7.594;2022-11-15T15:13:27;4.00;;;1.30;;
25567;SDS011;13455;51.480;7.594;2022-11-15T15:15:55;3.42;;;1.35;;
25567;SDS011;13455;51.480;7.594;2022-11-15T15:18:21;4.68;;;1.50;;
25567;SDS011;13455;51.480;7.594;2022-11-15T15:20:48;4.90;;;1.25;;
25567;SDS011;13455;51.480;7.594;2022-11-15T15:23:28;4.80;;;1.30;;
25567;SDS011;13455;51.480;7.594;2022-11-15T15:25:56;3.67;;;1.50;;
25567;SDS011;13455;51.480;7.594;2022-11-15T15:28:22;3.70;;;1.60;;
25567;SDS011;13455;51.480;7.594;2022-11-15T15:30:47;4.37;;;2.03;;
25567;SDS011;13455;51.480;7.594;2022-11-15T15:33:14;3.55;;;1.73;;
25567;SDS011;13455;51.480;7.594;2022-11-15T15:35:40;3.97;;;1.60;;
25567;SDS011;13455;51.480;7.594;2022-11-15T15:38:08;7.15;;;2.80;;
25567;SDS011;13455;51.480;7.594;2022-11-15T15:40:37;6.03;;;2.47;;
25567;SDS011;13455;51.480;7.594;2022-11-15T15:43:03;4.27;;;1.60;;
25567;SDS011;13455;51.480;7.594;2022-11-15T15:45:29;4.87;;;1.60;;
25567;SDS011;13455;51.480;7.594;2022-11-15T15:47:56;3.15;;;1.85;;
25567;SDS011;13455;51.480;7.594;2022-11-15T15:52:49;4.45;;;1.52;;
25567;SDS011;13455;51.480;7.594;2022-11-15T15:55:15;3.65;;;1.60;;
25567;SDS011;13455;51.480;7.594;2022-11-15T15:57:41;4.80;;;1.85;;
25567;SDS011;13455;51.480;7.594;2022-11-15T16:00:08;3.20;;;1.70;;
25567;SDS011;13455;51.480;7.594;2022-11-15T16:02:34;5.93;;;2.25;;
25567;SDS011;13455;51.480;7.594;2022-11-15T16:05:00;3.95;;;1.60;;
25567;SDS011;13455;51.480;7.594;2022-11-15T16:07:26;3.42;;;1.50;;
25567;SDS011;13455;51.480;7.594;2022-11-15T16:09:54;4.00;;;1.80;;
25567;SDS011;13455;51.480;7.594;2022-11-15T16:12:44;3.22;;;1.60;;
25567;SDS011;13455;51.480;7.594;2022-11-15T16:15:10;3.70;;;1.40;;
25567;SDS011;13455;51.480;7.594;2022-11-15T16:17:52;4.45;;;1.50;;
25567;SDS011;13455;51.480;7.594;2022-11-15T16:22:47;4.43;;;1.90;;
25567;SDS011;13455;51.480;7.594;2022-11-15T16:25:13;4.63;;;1.90;;
25567;SDS011;13455;51.480;7.594;2022-11-15T16:27:39;4.10;;;1.80;;
25567;SDS011;13455;51.480;7.594;2022-11-15T16:30:12;6.88;;;2.65;;
25567;SDS011;13455;51.480;7.594;2022-11-15T16:32:38;5.82;;;2.90;;
25567;SDS011;13455;51.480;7.594;2022-11-15T16:35:04;4.13;;;2.30;;
25567;SDS011;13455;51.480;7.594;2022-11-15T16:37:30;8.73;;;3.83;;
25567;SDS011;13455;51.480;7.594;2022-11-15T16:39:56;5.88;;;2.30;;
25567;SDS011;13455;51.480;7.594;2022-11-15T16:42:22;9.65;;;5.13;;
25567;SDS011;13455;51.480;7.594;2022-11-15T16:44:48;4.30;;;2.20;;
25567;SDS011;13455;51.480;7.594;2022-11-15T16:47:17;6.03;;;3.03;;
25567;SDS011;13455;51.480;7.594;2022-11-15T16:49:44;2.80;;;1.70;;
25567;SDS011;13455;51.480;7.594;2022-11-15T16:52:09;3.93;;;1.50;;
25567;SDS011;13455;51.480;7.594;2022-11-15T16:54:35;3.50;;;1.60;;
25567;SDS011;13455;51.480;7.594;2022-11-15T16:57:01;2.90;;;1.30;;
25567;SDS011;13455;51.480;7.594;2022-11-15T16:59:27;3.67;;;1.33;;
25567;SDS011;13455;51.480;7.594;2022-11-15T17:01:55;2.97;;;1.45;;
25567;SDS011;13455;51.480;7.594;2022-11-15T17:04:21;3.67;;;1.50;;
25567;SDS011;13455;51.480;7.594;2022-11-15T17:06:47;3.35;;;1.48;;
25567;SDS011;13455;51.480;7.594;2022-11-15T17:09:20;3.58;;;1.45;;
25567;SDS011;13455;51.480;7.594;2022-11-15T17:11:50;3.80;;;1.60;;
25567;SDS011;13455;51.480;7.594;2022-11-15T17:14:16;3.72;;;1.65;;
25567;SDS011;13455;51.480;7.594;2022-11-15T17:16:42;3.10;;;1.60;;
25567;SDS011;13455;51.480;7.594;2022-11-15T17:21:38;2.67;;;1.48;;
25567;SDS011;13455;51.480;7.594;2022-11-15T17:24:04;2.17;;;1.20;;
25567;SDS011;13455;51.480;7.594;2022-11-15T17:26:30;3.03;;;1.40;;